Terminal Aerodrome Forecast
Issued by NWS Pittsburgh, PA

Current Version | Previous Version | Graphics & Text | Print | Product List | Glossary On
Versions: 1 2 3 4 5 6 7 8 9 10 11 12 13 14 15 16 17 18 19 20 21 22 23 24 25 26 27 28 29 30 31 32
000
FTUS41 KPBZ 190200 AAA
TAFPIT
TAF AMD
KPIT 190244Z 1903/2006 VRB05KT P6SM SCT100
     FM190600 01002KT 4SM BR SCT100
     FM190900 00000KT 2SM BR SCT006
     FM191400 VRB04KT P6SM BKN040=

USA.gov is the U.S. government's official web portal to all federal, state and local government web resources and services.